Main page
METAR-TAF:

METAR-TAF

Airports :

Ioannina National Airport

Ioannina, Greece

latitude: 39-41-47N, longitude: 20-49-21E, elevation: 475 m

Current weather observation

The report was made 47 minutes ago, at 21:50 UTC
Wind 1 kt from variable directions
Temperature 23°C
Humidity 69%
Pressure 1011 hPa

METAR: LGIO 202150Z AUTO VRB01KT //// // ////// 23/17 Q1011 RE//

Time: 01:37 (22:37 UTC)

Forecast

The report was made 2 hours and 37 minutes ago, at 20:00 UTC
Forecast valid from 20 at 21 UTC to 21 at 06 UTC
Wind 3 kt from variable directions
Visibility 10 km or more
Few clouds at a height of 2500 ft

TAF: LGIO 202000Z 2021/2106 VRB03KT 9999 FEW025

Weather observations and forecasts of more than 4000 airports (METAR and TAF reports).

The available stations are represented by yellow and red dots on the map.

Hover mouse over dot to see the name of the station.

Then click to see weather observations and forecasts.

To change the map : click on the green buttons with a black cross to zoom in, on the green button with a dash to zoom out, or on the green arrows for adjacent maps.


METAR-TAF: